Time;durP1;ratioP1;P1;durP2;ratioP2;P2;SDS_P1;SDS_P2;PMS_P1;PMS_P2;Temp;Humidity;BMP_temperature;BMP_pressure;BME280_temperature;BME280_humidity;BME280_pressure;Samples;Min_cycle;Max_cycle;Signal;HPM_P1;HPM_P2
2023/08/26 00:00:04;;;;;;;0.10;0.10;;;;;;;;;;5107465;28;20512;-44
2023/08/26 00:02:30;;;;;;;0.10;0.10;;;;;;;;;;5107326;28;20075;-44
2023/08/26 00:04:55;;;;;;;0.10;0.10;;;;;;;;;;5107265;28;20062;-43
2023/08/26 00:07:21;;;;;;;0.10;0.10;;;;;;;;;;5120881;28;20047;-43
2023/08/26 00:09:46;;;;;;;0.10;0.10;;;;;;;;;;5107467;28;20044;-43
2023/08/26 00:12:12;;;;;;;0.10;0.10;;;;;;;;;;5106878;28;20039;-43
2023/08/26 00:14:37;;;;;;;0.10;0.10;;;;;;;;;;5107075;28;20040;-43
2023/08/26 00:17:04;;;;;;;0.10;0.10;;;;;;;;;;5119193;28;20507;-44
2023/08/26 00:19:31;;;;;;;0.10;0.10;;;;;;;;;;5106514;28;20078;-42
2023/08/26 00:21:57;;;;;;;0.10;0.10;;;;;;;;;;5110670;28;20047;-44
2023/08/26 00:24:22;;;;;;;0.10;0.10;;;;;;;;;;5110400;28;20490;-43
2023/08/26 00:26:48;;;;;;;0.10;0.10;;;;;;;;;;5131601;27;20476;-43
2023/08/26 00:29:13;;;;;;;0.10;0.10;;;;;;;;;;5116661;27;20470;-42
2023/08/26 00:31:39;;;;;;;0.10;0.10;;;;;;;;;;5128247;27;20066;-44
2023/08/26 00:34:04;;;;;;;0.10;0.10;;;;;;;;;;5151609;27;20054;-44
2023/08/26 00:36:30;;;;;;;0.10;0.10;;;;;;;;;;5144643;27;20051;-43
2023/08/26 00:38:56;;;;;;;0.10;0.10;;;;;;;;;;5131157;27;20051;-43
2023/08/26 00:41:22;;;;;;;0.10;0.10;;;;;;;;;;5131116;27;20112;-43
2023/08/26 00:43:47;;;;;;;0.10;0.10;;;;;;;;;;5129987;28;20070;-43
2023/08/26 00:46:13;;;;;;;0.10;0.10;;;;;;;;;;5130625;28;20043;-43
2023/08/26 00:48:39;;;;;;;0.10;0.10;;;;;;;;;;5130597;28;20054;-43
2023/08/26 00:51:04;;;;;;;0.10;0.10;;;;;;;;;;5131366;28;20370;-44
2023/08/26 00:53:30;;;;;;;0.20;0.20;;;;;;;;;;5130342;27;20609;-43
2023/08/26 00:55:56;;;;;;;0.10;0.10;;;;;;;;;;5131192;27;20070;-44
2023/08/26 00:58:21;;;;;;;0.10;0.10;;;;;;;;;;5120517;28;20394;-44
2023/08/26 01:00:47;;;;;;;0.10;0.10;;;;;;;;;;5110157;28;20063;-43
2023/08/26 01:03:13;;;;;;;0.10;0.10;;;;;;;;;;5109807;28;20051;-43
2023/08/26 01:05:39;;;;;;;0.10;0.10;;;;;;;;;;5110138;28;20392;-43
2023/08/26 01:08:05;;;;;;;0.10;0.10;;;;;;;;;;5121880;28;20052;-42
2023/08/26 01:10:36;;;;;;;0.10;0.10;;;;;;;;;;5110311;28;20047;-44
2023/08/26 01:13:04;;;;;;;0.10;0.10;;;;;;;;;;5109606;28;20492;-44
2023/08/26 01:15:29;;;;;;;0.10;0.10;;;;;;;;;;5110225;28;20044;-43
2023/08/26 01:17:55;;;;;;;0.10;0.10;;;;;;;;;;5119387;28;20134;-44
2023/08/26 01:20:23;;;;;;;0.10;0.10;;;;;;;;;;5108507;28;20418;-43
2023/08/26 01:22:51;;;;;;;0.10;0.10;;;;;;;;;;5109929;28;20083;-44
2023/08/26 01:25:16;;;;;;;;;;;;;;;;;;5110496;27;20039;-43
2023/08/26 01:27:42;;;;;;;0.10;0.10;;;;;;;;;;5124896;28;20014;-44
2023/08/26 01:30:08;;;;;;;0.10;0.10;;;;;;;;;;5130671;28;20055;-43
2023/08/26 01:32:37;;;;;;;0.10;0.10;;;;;;;;;;5145432;27;20337;-44
2023/08/26 01:35:04;;;;;;;0.10;0.10;;;;;;;;;;5150889;27;20134;-44
2023/08/26 01:37:30;;;;;;;0.10;0.10;;;;;;;;;;5134006;27;20078;-43
2023/08/26 01:39:58;;;;;;;0.10;0.10;;;;;;;;;;5109615;28;20410;-44
2023/08/26 01:42:25;;;;;;;0.10;0.10;;;;;;;;;;5108087;28;20044;-44
2023/08/26 01:44:51;;;;;;;0.10;0.10;;;;;;;;;;5108181;28;20109;-43
2023/08/26 01:47:17;;;;;;;0.10;0.10;;;;;;;;;;5118010;28;20047;-44
2023/08/26 01:49:43;;;;;;;0.10;0.10;;;;;;;;;;5109739;28;20051;-45
2023/08/26 01:52:09;;;;;;;0.10;0.10;;;;;;;;;;5107954;28;20465;-44
2023/08/26 01:54:35;;;;;;;0.10;0.10;;;;;;;;;;5107742;28;20546;-42
2023/08/26 01:57:01;;;;;;;0.10;0.10;;;;;;;;;;5118092;28;20047;-43
2023/08/26 01:59:26;;;;;;;0.10;0.10;;;;;;;;;;5129568;28;20043;-43
2023/08/26 02:01:52;;;;;;;0.10;0.10;;;;;;;;;;5130025;27;20342;-43
2023/08/26 02:04:17;;;;;;;0.10;0.10;;;;;;;;;;5129222;28;20047;-44
2023/08/26 02:06:43;;;;;;;0.10;0.10;;;;;;;;;;5129411;28;20343;-43
2023/08/26 02:09:08;;;;;;;0.10;0.10;;;;;;;;;;5129594;27;20043;-44
2023/08/26 02:11:34;;;;;;;0.10;0.10;;;;;;;;;;5129676;28;20059;-43
2023/08/26 02:13:59;;;;;;;0.10;0.10;;;;;;;;;;5129237;28;20126;-44
2023/08/26 02:16:25;;;;;;;0.10;0.10;;;;;;;;;;5129427;28;20055;-43
2023/08/26 02:18:53;;;;;;;0.10;0.10;;;;;;;;;;5128357;28;20062;-43
2023/08/26 02:21:18;;;;;;;0.10;0.10;;;;;;;;;;5129473;27;20511;-44
2023/08/26 02:23:44;;;;;;;0.10;0.10;;;;;;;;;;5128640;28;20082;-43
2023/08/26 02:26:09;;;;;;;0.10;0.10;;;;;;;;;;5111088;27;20063;-44
2023/08/26 02:28:35;;;;;;;0.10;0.10;;;;;;;;;;5121721;27;20044;-42
2023/08/26 02:31:02;;;;;;;0.10;0.10;;;;;;;;;;5112269;27;20058;-43
2023/08/26 02:33:28;;;;;;;0.10;0.10;;;;;;;;;;5149697;27;20472;-44
2023/08/26 02:35:54;;;;;;;0.10;0.10;;;;;;;;;;5149894;27;20411;-44
2023/08/26 02:38:19;;;;;;;0.10;0.10;;;;;;;;;;5121100;27;20066;-45
2023/08/26 02:40:52;;;;;;;0.10;0.10;;;;;;;;;;5108219;28;20058;-44
2023/08/26 02:43:18;;;;;;;0.10;0.10;;;;;;;;;;5106683;28;20546;-44
2023/08/26 02:45:43;;;;;;;0.10;0.10;;;;;;;;;;5108555;28;20052;-44
2023/08/26 02:48:09;;;;;;;0.10;0.10;;;;;;;;;;5116404;28;20043;-43
2023/08/26 02:50:37;;;;;;;0.10;0.10;;;;;;;;;;5108951;28;20040;-43
2023/08/26 02:53:03;;;;;;;0.10;0.10;;;;;;;;;;5108268;28;20043;-43
2023/08/26 02:55:29;;;;;;;0.10;0.10;;;;;;;;;;5108419;28;20071;-43
2023/08/26 02:57:54;;;;;;;0.10;0.10;;;;;;;;;;5116099;28;20455;-44
2023/08/26 03:00:20;;;;;;;0.10;0.10;;;;;;;;;;5108297;28;20145;-44
2023/08/26 03:02:45;;;;;;;0.10;0.10;;;;;;;;;;5108154;28;20492;-44
2023/08/26 03:05:11;;;;;;;0.20;0.20;;;;;;;;;;5107997;28;20509;-43
2023/08/26 03:07:37;;;;;;;0.10;0.10;;;;;;;;;;5115580;28;20044;-43
2023/08/26 03:10:02;;;;;;;0.10;0.10;;;;;;;;;;5108271;28;20096;-45
2023/08/26 03:12:28;;;;;;;0.10;0.10;;;;;;;;;;5107907;28;20078;-44
2023/08/26 03:14:53;;;;;;;0.10;0.10;;;;;;;;;;5107699;28;20047;-44
2023/08/26 03:17:19;;;;;;;0.10;0.10;;;;;;;;;;5114922;28;20323;-43
2023/08/26 03:19:44;;;;;;;0.13;0.13;;;;;;;;;;5108224;28;20481;-44
2023/08/26 03:22:10;;;;;;;0.10;0.10;;;;;;;;;;5107906;28;20413;-43
2023/08/26 03:24:36;;;;;;;0.10;0.10;;;;;;;;;;5107461;27;20055;-45
2023/08/26 03:27:02;;;;;;;0.10;0.10;;;;;;;;;;5116685;27;20043;-43
2023/08/26 03:29:27;;;;;;;0.10;0.10;;;;;;;;;;5109995;27;20059;-44
2023/08/26 03:31:53;;;;;;;0.10;0.10;;;;;;;;;;5127456;27;20065;-43
2023/08/26 03:34:18;;;;;;;0.10;0.10;;;;;;;;;;5148674;27;20437;-44
2023/08/26 03:36:44;;;;;;;0.10;0.10;;;;;;;;;;5145513;27;20047;-43
2023/08/26 03:39:10;;;;;;;0.10;0.10;;;;;;;;;;5128095;28;20058;-43
2023/08/26 03:41:35;;;;;;;0.10;0.10;;;;;;;;;;5128278;27;20488;-44
2023/08/26 03:44:01;;;;;;;0.10;0.10;;;;;;;;;;5127642;28;20054;-42
2023/08/26 03:46:27;;;;;;;0.10;0.10;;;;;;;;;;5128162;28;20047;-43
2023/08/26 03:48:53;;;;;;;0.10;0.10;;;;;;;;;;5113180;27;20075;-43
2023/08/26 03:51:19;;;;;;;0.10;0.10;;;;;;;;;;5107883;28;20078;-42
2023/08/26 03:53:44;;;;;;;0.10;0.10;;;;;;;;;;5107063;28;20133;-42
2023/08/26 03:56:10;;;;;;;0.10;0.10;;;;;;;;;;5111360;28;20099;-44
2023/08/26 03:58:37;;;;;;;0.10;0.10;;;;;;;;;;5116607;28;20040;-42
2023/08/26 04:01:04;;;;;;;0.10;0.10;;;;;;;;;;5111157;28;20051;-43
2023/08/26 04:03:31;;;;;;;0.10;0.10;;;;;;;;;;5109374;28;20059;-43
2023/08/26 04:05:59;;;;;;;0.10;0.10;;;;;;;;;;5111120;28;20074;-44
2023/08/26 04:08:24;;;;;;;;;;;;;;;;;;5117084;28;20075;-44
2023/08/26 04:10:53;;;;;;;0.10;0.10;;;;;;;;;;5111345;28;20325;-43
2023/08/26 04:13:20;;;;;;;0.10;0.10;;;;;;;;;;5109023;28;20120;-43
2023/08/26 04:15:46;;;;;;;0.10;0.10;;;;;;;;;;5111204;28;20079;-43
2023/08/26 04:18:13;;;;;;;0.10;0.10;;;;;;;;;;5124637;28;20046;-44
2023/08/26 04:20:38;;;;;;;0.38;0.25;;;;;;;;;;5131888;28;20047;-43
2023/08/26 04:23:04;;;;;;;0.10;0.10;;;;;;;;;;5130726;28;20135;-43
2023/08/26 04:25:29;;;;;;;0.10;0.10;;;;;;;;;;5122318;27;20067;-43
2023/08/26 04:27:55;;;;;;;0.10;0.10;;;;;;;;;;5120031;27;20047;-44
2023/08/26 04:30:21;;;;;;;0.10;0.10;;;;;;;;;;5110880;28;20051;-43
2023/08/26 04:32:47;;;;;;;0.10;0.10;;;;;;;;;;5145305;27;20046;-43
2023/08/26 04:35:13;;;;;;;0.10;0.10;;;;;;;;;;5151485;27;20046;-42
2023/08/26 04:37:39;;;;;;;0.10;0.10;;;;;;;;;;5142688;27;20057;-43
2023/08/26 04:40:12;;;;;;;0.10;0.10;;;;;;;;;;5131094;27;20077;-43
2023/08/26 04:42:38;;;;;;;0.10;0.10;;;;;;;;;;5129684;27;20404;-43
2023/08/26 04:45:05;;;;;;;0.10;0.10;;;;;;;;;;5130912;27;20051;-43
2023/08/26 04:47:31;;;;;;;0.10;0.10;;;;;;;;;;5130732;27;20114;-43
2023/08/26 04:49:57;;;;;;;0.10;0.10;;;;;;;;;;5130964;28;20489;-43
2023/08/26 04:52:22;;;;;;;0.10;0.10;;;;;;;;;;5131051;27;20389;-44
2023/08/26 04:54:48;;;;;;;0.10;0.10;;;;;;;;;;5130155;28;20047;-43
2023/08/26 04:57:13;;;;;;;0.10;0.10;;;;;;;;;;5130297;28;20054;-42
2023/08/26 04:59:39;;;;;;;0.10;0.10;;;;;;;;;;5131104;27;20044;-43
2023/08/26 05:02:07;;;;;;;0.10;0.10;;;;;;;;;;5131289;28;20422;-43
2023/08/26 05:04:33;;;;;;;0.10;0.10;;;;;;;;;;5129873;27;20054;-43
2023/08/26 05:06:59;;;;;;;0.10;0.10;;;;;;;;;;5129414;27;20043;-43
2023/08/26 05:09:24;;;;;;;0.10;0.10;;;;;;;;;;5111526;28;20144;-44
2023/08/26 05:11:49;;;;;;;0.10;0.10;;;;;;;;;;5109743;28;20500;-43
2023/08/26 05:14:15;;;;;;;0.10;0.10;;;;;;;;;;5109360;28;20055;-44
2023/08/26 05:16:41;;;;;;;0.10;0.10;;;;;;;;;;5110166;28;20143;-43
2023/08/26 05:19:06;;;;;;;0.10;0.10;;;;;;;;;;5129151;28;20488;-44
2023/08/26 05:21:32;;;;;;;0.10;0.10;;;;;;;;;;5130636;28;20138;-44
2023/08/26 05:23:59;;;;;;;0.10;0.10;;;;;;;;;;5130093;27;20059;-43
2023/08/26 05:26:24;;;;;;;0.10;0.10;;;;;;;;;;5112471;27;20098;-42
2023/08/26 05:28:50;;;;;;;0.10;0.10;;;;;;;;;;5128651;27;20460;-43
2023/08/26 05:31:15;;;;;;;0.10;0.10;;;;;;;;;;5134903;27;20516;-42
2023/08/26 05:33:41;;;;;;;0.10;0.10;;;;;;;;;;5150244;27;20165;-43
2023/08/26 05:36:06;;;;;;;0.10;0.10;;;;;;;;;;5151040;27;20051;-43
2023/08/26 05:38:32;;;;;;;0.10;0.10;;;;;;;;;;5124373;27;20138;-44
2023/08/26 05:40:58;;;;;;;0.10;0.10;;;;;;;;;;5115185;28;20055;-43
2023/08/26 05:43:23;;;;;;;0.10;0.10;;;;;;;;;;5129524;27;20054;-43
2023/08/26 05:45:49;;;;;;;0.10;0.10;;;;;;;;;;5130052;27;20046;-43
2023/08/26 05:48:14;;;;;;;0.10;0.10;;;;;;;;;;5120520;27;20101;-43
2023/08/26 05:50:40;;;;;;;0.20;0.20;;;;;;;;;;5109696;28;20054;-44
2023/08/26 05:53:05;;;;;;;0.10;0.10;;;;;;;;;;5109365;28;20537;-43
2023/08/26 05:55:33;;;;;;;0.10;0.10;;;;;;;;;;5109517;28;20039;-44
2023/08/26 05:57:58;;;;;;;0.10;0.10;;;;;;;;;;5111400;28;20495;-43
2023/08/26 06:00:26;;;;;;;0.10;0.10;;;;;;;;;;5109238;28;20047;-43
2023/08/26 06:02:51;;;;;;;0.10;0.10;;;;;;;;;;5109186;28;20075;-43
2023/08/26 06:05:17;;;;;;;0.10;0.10;;;;;;;;;;5109056;28;20067;-42
2023/08/26 06:07:42;;;;;;;0.10;0.10;;;;;;;;;;5115289;28;20142;-43
2023/08/26 06:10:08;;;;;;;0.20;0.20;;;;;;;;;;5129958;28;20480;-43
2023/08/26 06:12:33;;;;;;;0.10;0.10;;;;;;;;;;5129133;27;20047;-42
2023/08/26 06:14:59;;;;;;;0.10;0.10;;;;;;;;;;5128906;28;20043;-44
2023/08/26 06:17:24;;;;;;;0.10;0.10;;;;;;;;;;5128598;27;20508;-44
2023/08/26 06:19:50;;;;;;;0.20;0.20;;;;;;;;;;5128808;28;20155;-45
2023/08/26 06:22:15;;;;;;;0.10;0.10;;;;;;;;;;5129825;28;20090;-43
2023/08/26 06:24:41;;;;;;;0.10;0.10;;;;;;;;;;5126773;27;20485;-43
2023/08/26 06:27:07;;;;;;;0.10;0.10;;;;;;;;;;5115591;27;20054;-42
2023/08/26 06:29:32;;;;;;;0.10;0.10;;;;;;;;;;5129034;28;20051;-44
2023/08/26 06:31:58;;;;;;;0.10;0.10;;;;;;;;;;5139884;27;20074;-45
2023/08/26 06:34:23;;;;;;;0.10;0.10;;;;;;;;;;5149264;27;20047;-43
2023/08/26 06:36:49;;;;;;;0.10;0.10;;;;;;;;;;5149975;27;20054;-44
2023/08/26 06:39:14;;;;;;;0.10;0.10;;;;;;;;;;5130753;27;20488;-44
2023/08/26 06:41:40;;;;;;;0.10;0.10;;;;;;;;;;5128972;28;20043;-43
2023/08/26 06:44:06;;;;;;;0.10;0.10;;;;;;;;;;5117879;28;20051;-44
2023/08/26 06:46:31;;;;;;;0.10;0.10;;;;;;;;;;5108832;28;20043;-44
2023/08/26 06:48:58;;;;;;;0.10;0.10;;;;;;;;;;5122749;28;20059;-43
2023/08/26 06:51:24;;;;;;;0.10;0.10;;;;;;;;;;5128751;27;20054;-43
2023/08/26 06:53:49;;;;;;;0.10;0.10;;;;;;;;;;5128451;28;20334;-44
2023/08/26 06:56:15;;;;;;;0.10;0.10;;;;;;;;;;5129856;28;20484;-43
2023/08/26 06:58:40;;;;;;;0.10;0.10;;;;;;;;;;5115981;27;20048;-43
2023/08/26 07:01:06;;;;;;;0.10;0.10;;;;;;;;;;5108354;28;20052;-44
2023/08/26 07:03:31;;;;;;;0.10;0.10;;;;;;;;;;5107890;28;20048;-44
2023/08/26 07:05:57;;;;;;;0.10;0.10;;;;;;;;;;5108585;28;20036;-43
2023/08/26 07:08:23;;;;;;;0.10;0.10;;;;;;;;;;5107872;28;20047;-43
2023/08/26 07:10:49;;;;;;;0.10;0.10;;;;;;;;;;5108591;28;20473;-43
2023/08/26 07:13:14;;;;;;;0.10;0.10;;;;;;;;;;5107819;28;20054;-44
2023/08/26 07:15:40;;;;;;;0.10;0.10;;;;;;;;;;5108346;28;20138;-43
2023/08/26 07:18:05;;;;;;;0.20;0.20;;;;;;;;;;5115007;28;20051;-44
2023/08/26 07:20:31;;;;;;;0.10;0.10;;;;;;;;;;5128769;28;20050;-43
2023/08/26 07:22:57;;;;;;;0.10;0.10;;;;;;;;;;5128605;27;20528;-43
2023/08/26 07:25:22;;;;;;;0.10;0.10;;;;;;;;;;5120684;27;20048;-44
2023/08/26 07:27:48;;;;;;;0.10;0.10;;;;;;;;;;5121060;27;20055;-44
2023/08/26 07:30:13;;;;;;;0.10;0.10;;;;;;;;;;5126821;27;20047;-42
2023/08/26 07:32:40;;;;;;;0.10;0.10;;;;;;;;;;5144739;27;20074;-43
2023/08/26 07:35:06;;;;;;;0.10;0.10;;;;;;;;;;5147743;27;20068;-44
2023/08/26 07:37:32;;;;;;;0.10;0.10;;;;;;;;;;5143672;27;20087;-43
2023/08/26 07:39:59;;;;;;;0.10;0.10;;;;;;;;;;5128530;28;20086;-44
2023/08/26 07:42:25;;;;;;;0.10;0.10;;;;;;;;;;5128149;27;20039;-42
2023/08/26 07:44:50;;;;;;;0.10;0.10;;;;;;;;;;5127963;28;20058;-43
2023/08/26 07:47:17;;;;;;;0.10;0.10;;;;;;;;;;5127969;28;20477;-44
2023/08/26 07:49:42;;;;;;;0.10;0.10;;;;;;;;;;5128619;27;20047;-43
2023/08/26 07:52:09;;;;;;;0.10;0.10;;;;;;;;;;5108101;28;20493;-43
2023/08/26 07:54:34;;;;;;;0.10;0.10;;;;;;;;;;5106879;28;20551;-43
2023/08/26 07:57:00;;;;;;;0.10;0.10;;;;;;;;;;5108220;28;20059;-43
2023/08/26 07:59:25;;;;;;;0.10;0.10;;;;;;;;;;5107403;28;20043;-44
2023/08/26 08:01:51;;;;;;;0.10;0.10;;;;;;;;;;5107380;28;20059;-44
2023/08/26 08:04:16;;;;;;;0.10;0.10;;;;;;;;;;5107326;28;20039;-43
2023/08/26 08:06:42;;;;;;;0.10;0.10;;;;;;;;;;5107783;28;20054;-43
2023/08/26 08:09:07;;;;;;;0.10;0.10;;;;;;;;;;5105061;28;20047;-43
2023/08/26 08:11:33;;;;;;;0.10;0.10;;;;;;;;;;5107558;28;20063;-43
2023/08/26 08:13:58;;;;;;;0.10;0.10;;;;;;;;;;5107015;28;20408;-43
2023/08/26 08:16:24;;;;;;;0.10;0.10;;;;;;;;;;5107792;28;20492;-44
2023/08/26 08:18:52;;;;;;;0.10;0.10;;;;;;;;;;5104563;28;20052;-45
2023/08/26 08:21:17;;;;;;;0.10;0.10;;;;;;;;;;5107930;28;20055;-43
2023/08/26 08:23:45;;;;;;;0.10;0.10;;;;;;;;;;5106878;28;20066;-43
2023/08/26 08:26:11;;;;;;;0.10;0.10;;;;;;;;;;5092547;28;20072;-43
2023/08/26 08:28:38;;;;;;;0.10;0.10;;;;;;;;;;5103617;28;20079;-43
2023/08/26 08:31:03;;;;;;;0.10;0.10;;;;;;;;;;5109328;28;20075;-44
2023/08/26 08:33:29;;;;;;;0.10;0.10;;;;;;;;;;5109780;28;20062;-43
2023/08/26 08:35:55;;;;;;;0.10;0.10;;;;;;;;;;5106943;28;20052;-43
2023/08/26 08:38:21;;;;;;;0.10;0.10;;;;;;;;;;5106547;28;20055;-43
2023/08/26 08:40:47;;;;;;;0.10;0.10;;;;;;;;;;5107298;28;20051;-43
2023/08/26 08:43:13;;;;;;;0.10;0.10;;;;;;;;;;5109322;28;20404;-43
2023/08/26 08:45:39;;;;;;;0.10;0.10;;;;;;;;;;5109976;28;20051;-46
2023/08/26 08:48:04;;;;;;;0.10;0.10;;;;;;;;;;5109475;28;20050;-43
2023/08/26 08:50:31;;;;;;;0.10;0.10;;;;;;;;;;5110616;28;20074;-43
2023/08/26 08:52:57;;;;;;;0.10;0.10;;;;;;;;;;5109954;28;20444;-43
2023/08/26 08:55:24;;;;;;;0.10;0.10;;;;;;;;;;5109835;28;20048;-43
2023/08/26 08:57:51;;;;;;;0.10;0.10;;;;;;;;;;5110160;28;20047;-43
2023/08/26 09:00:18;;;;;;;0.10;0.10;;;;;;;;;;5108484;28;20555;-43
2023/08/26 09:02:45;;;;;;;0.10;0.10;;;;;;;;;;5110019;28;20051;-44
2023/08/26 09:05:11;;;;;;;0.10;0.10;;;;;;;;;;5109947;28;20058;-43
2023/08/26 09:07:38;;;;;;;0.10;0.10;;;;;;;;;;5109791;28;20288;-43
2023/08/26 09:10:05;;;;;;;0.10;0.10;;;;;;;;;;5109769;28;20054;-43
2023/08/26 09:12:31;;;;;;;0.10;0.10;;;;;;;;;;5109451;28;20079;-43
2023/08/26 09:14:56;;;;;;;0.10;0.10;;;;;;;;;;5108547;28;20050;-43
2023/08/26 09:17:22;;;;;;;0.10;0.10;;;;;;;;;;5109647;28;20074;-43
2023/08/26 09:19:50;;;;;;;0.10;0.10;;;;;;;;;;5110032;28;20405;-44
2023/08/26 09:22:18;;;;;;;0.10;0.10;;;;;;;;;;5109734;28;20516;-43
2023/08/26 09:24:43;;;;;;;0.10;0.10;;;;;;;;;;5108916;28;20132;-43
2023/08/26 09:27:09;;;;;;;0.10;0.10;;;;;;;;;;5113837;28;20047;-43
2023/08/26 09:29:36;;;;;;;0.10;0.10;;;;;;;;;;5104756;28;20051;-43
2023/08/26 09:32:03;;;;;;;0.10;0.10;;;;;;;;;;5120695;28;20058;-43
2023/08/26 09:34:30;;;;;;;0.10;0.10;;;;;;;;;;5129917;27;20051;-43
2023/08/26 09:36:55;;;;;;;0.10;0.10;;;;;;;;;;5130670;27;20047;-43
2023/08/26 09:39:21;;;;;;;0.10;0.10;;;;;;;;;;5106222;27;20048;-43
2023/08/26 09:41:47;;;;;;;0.10;0.10;;;;;;;;;;5108056;28;20138;-43
2023/08/26 09:44:15;;;;;;;0.10;0.10;;;;;;;;;;5108616;28;20401;-43
2023/08/26 09:46:42;;;;;;;0.10;0.10;;;;;;;;;;5109729;28;20047;-43
2023/08/26 09:49:16;;;;;;;0.10;0.10;;;;;;;;;;5108116;28;20487;-43
2023/08/26 09:51:50;;;;;;;0.10;0.10;;;;;;;;;;5109705;28;20413;-43
2023/08/26 09:54:16;;;;;;;0.10;0.10;;;;;;;;;;5107367;28;20044;-42
2023/08/26 09:56:42;;;;;;;0.10;0.10;;;;;;;;;;5108485;28;20086;-43
2023/08/26 09:59:08;;;;;;;0.10;0.10;;;;;;;;;;5107795;28;20052;-43
2023/08/26 10:01:34;;;;;;;0.10;0.10;;;;;;;;;;5108297;28;20082;-44
2023/08/26 10:04:04;;;;;;;0.10;0.10;;;;;;;;;;5108691;28;20051;-43
2023/08/26 10:06:31;;;;;;;0.10;0.10;;;;;;;;;;5108243;28;20047;-43
2023/08/26 10:09:00;;;;;;;0.10;0.10;;;;;;;;;;5107870;28;20054;-43
2023/08/26 10:11:27;;;;;;;0.10;0.10;;;;;;;;;;5108113;28;20083;-43
2023/08/26 10:13:53;;;;;;;0.10;0.10;;;;;;;;;;5108891;28;20046;-43
2023/08/26 10:16:19;;;;;;;0.10;0.10;;;;;;;;;;5109504;28;20420;-43
2023/08/26 10:19:00;;;;;;;0.10;0.10;;;;;;;;;;5107181;28;20138;-43
2023/08/26 10:21:25;;;;;;;0.10;0.10;;;;;;;;;;5109372;28;20055;-43
2023/08/26 10:23:51;;;;;;;0.10;0.10;;;;;;;;;;5108745;28;20051;-43
2023/08/26 10:26:18;;;;;;;0.10;0.10;;;;;;;;;;5093169;28;20433;-43
2023/08/26 10:28:44;;;;;;;0.10;0.10;;;;;;;;;;5105559;28;20071;-44
2023/08/26 10:31:09;;;;;;;0.10;0.10;;;;;;;;;;5109363;28;20394;-44
2023/08/26 10:33:55;;;;;;;0.10;0.10;;;;;;;;;;5108510;28;20048;-43
2023/08/26 10:36:21;;;;;;;0.10;0.10;;;;;;;;;;5107919;28;20075;-43
2023/08/26 10:38:54;;;;;;;0.10;0.10;;;;;;;;;;5101233;28;20098;-43
2023/08/26 10:41:19;;;;;;;0.10;0.10;;;;;;;;;;5107590;28;20082;-43
2023/08/26 10:43:53;;;;;;;0.10;0.10;;;;;;;;;;5108025;28;20504;-43
2023/08/26 10:46:30;;;;;;;0.10;0.10;;;;;;;;;;5109292;28;20051;-43
2023/08/26 10:48:56;;;;;;;0.10;0.10;;;;;;;;;;5099480;28;20048;-43
2023/08/26 10:51:21;;;;;;;0.10;0.10;;;;;;;;;;5109087;28;20058;-43
2023/08/26 10:53:48;;;;;;;0.10;0.10;;;;;;;;;;5108252;28;20051;-43
2023/08/26 10:56:14;;;;;;;0.10;0.10;;;;;;;;;;5107414;28;20055;-44
2023/08/26 10:58:42;;;;;;;0.10;0.10;;;;;;;;;;5106991;28;20043;-43
2023/08/26 11:01:08;;;;;;;0.10;0.10;;;;;;;;;;5107582;28;20082;-43
2023/08/26 11:03:36;;;;;;;0.10;0.10;;;;;;;;;;5107996;28;20043;-43
2023/08/26 11:06:03;;;;;;;0.17;0.17;;;;;;;;;;5108337;28;20056;-43
2023/08/26 11:08:28;;;;;;;0.10;0.10;;;;;;;;;;5108271;28;20047;-43
2023/08/26 11:10:54;;;;;;;0.10;0.10;;;;;;;;;;5108499;28;20315;-43
2023/08/26 11:13:20;;;;;;;0.10;0.10;;;;;;;;;;5107794;28;20105;-43
2023/08/26 11:15:46;;;;;;;0.10;0.10;;;;;;;;;;5107248;28;20075;-43
2023/08/26 11:18:12;;;;;;;0.10;0.10;;;;;;;;;;5107876;28;20067;-43
2023/08/26 11:20:38;;;;;;;0.10;0.10;;;;;;;;;;5108524;28;20536;-43
2023/08/26 11:23:04;;;;;;;0.10;0.10;;;;;;;;;;5107903;28;20499;-43
2023/08/26 11:25:30;;;;;;;0.10;0.10;;;;;;;;;;5107754;28;20074;-43
2023/08/26 11:28:03;;;;;;;0.10;0.10;;;;;;;;;;5112266;28;20413;-44
2023/08/26 11:30:29;;;;;;;0.10;0.10;;;;;;;;;;5108369;28;20044;-43
2023/08/26 11:32:58;;;;;;;0.10;0.10;;;;;;;;;;5107981;28;20105;-43
2023/08/26 11:35:24;;;;;;;0.10;0.10;;;;;;;;;;5106953;28;20043;-43
2023/08/26 11:37:49;;;;;;;0.10;0.10;;;;;;;;;;5102572;28;20079;-44
2023/08/26 11:40:16;;;;;;;0.10;0.10;;;;;;;;;;5104220;28;20475;-43
2023/08/26 11:42:42;;;;;;;0.10;0.10;;;;;;;;;;5107392;28;20043;-44
2023/08/26 11:45:09;;;;;;;0.10;0.10;;;;;;;;;;5106343;28;20059;-43
2023/08/26 11:47:35;;;;;;;0.20;0.20;;;;;;;;;;5102625;28;20044;-43
2023/08/26 11:50:00;;;;;;;0.10;0.10;;;;;;;;;;5101838;28;20104;-43
2023/08/26 11:52:30;;;;;;;0.10;0.10;;;;;;;;;;5107495;28;20092;-43
2023/08/26 11:54:56;;;;;;;0.10;0.10;;;;;;;;;;5107513;28;20052;-43
2023/08/26 11:57:22;;;;;;;0.10;0.10;;;;;;;;;;5106083;28;20390;-43
2023/08/26 11:59:48;;;;;;;0.10;0.10;;;;;;;;;;5099206;28;20746;-43
2023/08/26 12:02:21;;;;;;;0.10;0.10;;;;;;;;;;5106381;28;20521;-43
2023/08/26 12:04:54;;;;;;;0.10;0.10;;;;;;;;;;5105948;28;20075;-43
2023/08/26 12:07:20;;;;;;;0.10;0.10;;;;;;;;;;5105055;28;20116;-43
2023/08/26 12:09:45;;;;;;;0.10;0.10;;;;;;;;;;5098414;28;20146;-43
2023/08/26 12:12:11;;;;;;;0.10;0.10;;;;;;;;;;5107278;28;20205;-43
2023/08/26 12:14:36;;;;;;;0.10;0.10;;;;;;;;;;5107394;28;20130;-43
2023/08/26 12:17:03;;;;;;;0.10;0.10;;;;;;;;;;5110167;28;20082;-43
2023/08/26 12:19:31;;;;;;;0.10;0.10;;;;;;;;;;5100207;28;20048;-43
2023/08/26 12:21:58;;;;;;;0.10;0.10;;;;;;;;;;5109484;28;20075;-44
2023/08/26 12:24:24;;;;;;;0.10;0.10;;;;;;;;;;5110526;28;20078;-43
2023/08/26 12:26:50;;;;;;;0.10;0.10;;;;;;;;;;5112676;28;20054;-43
2023/08/26 12:29:16;;;;;;;0.10;0.10;;;;;;;;;;5102579;27;20119;-43
2023/08/26 12:31:43;;;;;;;0.15;0.10;;;;;;;;;;5110893;28;20108;-43
2023/08/26 12:34:09;;;;;;;0.10;0.10;;;;;;;;;;5110356;28;20488;-43
2023/08/26 12:36:34;;;;;;;0.10;0.10;;;;;;;;;;5111161;28;20043;-43
2023/08/26 12:39:00;;;;;;;0.22;0.22;;;;;;;;;;5099498;28;20370;-43
2023/08/26 12:41:26;;;;;;;0.10;0.10;;;;;;;;;;5110823;28;20079;-43
2023/08/26 12:43:54;;;;;;;0.10;0.10;;;;;;;;;;5108800;28;20059;-44
2023/08/26 12:46:20;;;;;;;0.10;0.10;;;;;;;;;;5111076;28;20561;-43
2023/08/26 12:48:47;;;;;;;0.10;0.10;;;;;;;;;;5110173;28;20051;-43
2023/08/26 12:51:21;;;;;;;0.10;0.10;;;;;;;;;;5110474;28;20122;-43
2023/08/26 12:53:47;;;;;;;0.10;0.10;;;;;;;;;;5110082;28;20044;-43
2023/08/26 12:56:12;;;;;;;0.10;0.10;;;;;;;;;;5110493;28;20365;-43
2023/08/26 12:58:38;;;;;;;0.10;0.10;;;;;;;;;;5098452;28;20101;-43
2023/08/26 13:01:03;;;;;;;0.10;0.10;;;;;;;;;;5110738;28;20120;-43
2023/08/26 13:03:29;;;;;;;0.10;0.10;;;;;;;;;;5109936;28;20053;-43
2023/08/26 13:05:55;;;;;;;0.10;0.10;;;;;;;;;;5110624;28;20043;-43
2023/08/26 13:08:21;;;;;;;0.10;0.10;;;;;;;;;;5100807;28;20091;-44
2023/08/26 13:10:46;;;;;;;0.10;0.10;;;;;;;;;;5108158;28;20047;-43
2023/08/26 13:13:12;;;;;;;0.10;0.10;;;;;;;;;;5109134;28;20048;-43
2023/08/26 13:15:41;;;;;;;0.10;0.10;;;;;;;;;;5110482;28;20051;-43
2023/08/26 13:18:06;;;;;;;0.10;0.10;;;;;;;;;;5110041;28;20043;-43
2023/08/26 13:20:33;;;;;;;0.10;0.10;;;;;;;;;;5110158;28;20056;-43
2023/08/26 13:22:58;;;;;;;0.10;0.10;;;;;;;;;;5109576;28;20043;-43
2023/08/26 13:25:24;;;;;;;0.10;0.10;;;;;;;;;;5108513;28;20092;-43
2023/08/26 13:27:50;;;;;;;0.10;0.10;;;;;;;;;;5108970;28;20048;-43
2023/08/26 13:30:16;;;;;;;0.10;0.10;;;;;;;;;;5102725;28;20401;-44
2023/08/26 13:32:41;;;;;;;0.10;0.10;;;;;;;;;;5109847;28;20519;-43
2023/08/26 13:35:07;;;;;;;0.10;0.10;;;;;;;;;;5108943;28;20047;-43
2023/08/26 13:37:33;;;;;;;0.10;0.10;;;;;;;;;;5107003;28;20044;-43
2023/08/26 13:39:58;;;;;;;0.10;0.10;;;;;;;;;;5099547;28;20054;-43
2023/08/26 13:42:24;;;;;;;0.10;0.10;;;;;;;;;;5109309;28;20054;-43
2023/08/26 13:44:49;;;;;;;0.10;0.10;;;;;;;;;;5109388;28;20052;-43
2023/08/26 13:47:15;;;;;;;0.10;0.10;;;;;;;;;;5109227;28;20044;-43
2023/08/26 13:49:40;;;;;;;0.10;0.10;;;;;;;;;;5107972;28;20051;-44
2023/08/26 13:52:06;;;;;;;0.10;0.10;;;;;;;;;;5109557;28;20052;-43
2023/08/26 13:54:31;;;;;;;0.10;0.10;;;;;;;;;;5109478;28;20528;-43
2023/08/26 13:56:57;;;;;;;0.10;0.10;;;;;;;;;;5110003;28;20078;-43
2023/08/26 13:59:25;;;;;;;0.10;0.10;;;;;;;;;;5109277;28;20139;-43
2023/08/26 14:01:51;;;;;;;0.10;0.10;;;;;;;;;;5109906;28;20048;-42
2023/08/26 14:04:17;;;;;;;0.10;0.10;;;;;;;;;;5109028;28;20047;-43
2023/08/26 14:06:42;;;;;;;0.10;0.10;;;;;;;;;;5109753;28;20551;-44
2023/08/26 14:09:08;;;;;;;0.10;0.10;;;;;;;;;;5094706;28;20078;-43
2023/08/26 14:11:34;;;;;;;0.10;0.10;;;;;;;;;;5108910;28;20043;-43
2023/08/26 14:13:59;;;;;;;0.10;0.10;;;;;;;;;;5109319;28;20130;-43
2023/08/26 14:16:26;;;;;;;0.10;0.10;;;;;;;;;;5109384;28;20043;-43
2023/08/26 14:18:52;;;;;;;0.10;0.10;;;;;;;;;;5109069;28;20052;-43
2023/08/26 14:21:18;;;;;;;0.10;0.10;;;;;;;;;;5109294;28;20051;-46
2023/08/26 14:23:44;;;;;;;0.10;0.10;;;;;;;;;;5109942;28;20039;-43
2023/08/26 14:26:13;;;;;;;0.10;0.10;;;;;;;;;;5129742;28;20453;-43
2023/08/26 14:28:39;;;;;;;0.10;0.10;;;;;;;;;;5112681;28;20051;-43
2023/08/26 14:31:04;;;;;;;0.10;0.10;;;;;;;;;;5108906;28;20073;-44
2023/08/26 14:33:30;;;;;;;0.10;0.10;;;;;;;;;;5108346;28;20143;-43
2023/08/26 14:35:55;;;;;;;0.10;0.10;;;;;;;;;;5108925;28;20481;-43